createdAt,value
2018-08-20T00:01:07.343Z,9.03
2018-08-20T00:03:39.534Z,11.53
2018-08-20T00:06:08.260Z,7.20
2018-08-20T00:08:38.108Z,10.47
2018-08-20T00:11:06.856Z,9.07
2018-08-20T00:13:35.569Z,9.17
2018-08-20T00:16:04.329Z,8.80
2018-08-20T00:23:24.381Z,8.83
2018-08-20T00:25:56.055Z,9.13
2018-08-20T00:28:24.838Z,9.93
2018-08-20T00:30:53.617Z,11.07
2018-08-20T00:33:22.446Z,10.07
2018-08-20T00:35:51.150Z,11.87
2018-08-20T00:38:19.895Z,9.97
2018-08-20T00:40:48.619Z,10.60
2018-08-20T00:43:17.442Z,10.33
2018-08-20T00:45:46.196Z,12.67
2018-08-20T00:48:15.008Z,10.27
2018-08-20T00:50:43.686Z,15.47
2018-08-20T00:53:12.413Z,11.73
2018-08-20T00:55:41.068Z,10.80
2018-08-20T00:58:09.798Z,11.90
2018-08-20T01:00:38.541Z,9.60
2018-08-20T01:03:07.392Z,11.93
2018-08-20T01:05:36.172Z,10.50
2018-08-20T01:08:05.012Z,10.13
2018-08-20T01:10:33.728Z,11.37
2018-08-20T01:13:02.500Z,11.10
2018-08-20T01:15:31.207Z,11.47
2018-08-20T01:17:59.958Z,11.87
2018-08-20T01:20:28.660Z,10.57
2018-08-20T01:22:57.388Z,10.33
2018-08-20T01:25:26.163Z,10.97
2018-08-20T01:27:55.056Z,11.67
2018-08-20T01:30:23.806Z,12.40
2018-08-20T01:32:56.469Z,11.07
2018-08-20T01:35:27.863Z,15.33
2018-08-20T01:37:56.757Z,12.00
2018-08-20T01:40:25.808Z,16.20
2018-08-20T01:42:54.525Z,12.07
2018-08-20T01:45:23.294Z,13.47
2018-08-20T01:47:51.980Z,12.80
2018-08-20T01:50:20.691Z,14.17
2018-08-20T01:52:49.437Z,11.60
2018-08-20T01:55:18.206Z,11.93
2018-08-20T01:57:46.995Z,11.77
2018-08-20T02:00:15.729Z,12.00
2018-08-20T02:02:48.554Z,15.67
2018-08-20T02:05:17.308Z,16.10
2018-08-20T02:07:46.090Z,12.73
2018-08-20T02:10:14.855Z,12.73
2018-08-20T02:12:44.276Z,15.17
2018-08-20T02:15:13.082Z,12.07
2018-08-20T02:17:41.864Z,10.97
2018-08-20T02:20:10.714Z,12.70
2018-08-20T02:22:39.403Z,12.77
2018-08-20T02:25:08.173Z,13.50
2018-08-20T02:27:36.937Z,12.83
2018-08-20T02:30:08.065Z,13.33
2018-08-20T02:32:37.098Z,13.50
2018-08-20T02:35:06.397Z,10.97
2018-08-20T02:37:40.236Z,15.20
2018-08-20T02:40:09.161Z,22.47
2018-08-20T02:42:38.138Z,16.23
2018-08-20T02:45:10.008Z,11.47
2018-08-20T02:47:40.184Z,12.60
2018-08-20T02:50:09.446Z,11.10
2018-08-20T02:52:38.214Z,11.40
2018-08-20T02:55:07.434Z,11.90
2018-08-20T02:57:36.190Z,12.60
2018-08-20T03:00:08.184Z,13.67
2018-08-20T03:02:36.972Z,14.07
2018-08-20T03:05:06.023Z,11.77
2018-08-20T03:07:34.819Z,12.33
2018-08-20T03:10:03.739Z,15.17
2018-08-20T03:12:32.539Z,14.17
2018-08-20T03:15:01.281Z,15.67
2018-08-20T03:17:30.079Z,13.80
2018-08-20T03:19:58.814Z,13.97
2018-08-20T03:22:27.564Z,13.80
2018-08-20T03:24:56.278Z,16.20
2018-08-20T03:27:24.997Z,15.20
2018-08-20T03:29:53.724Z,17.73
2018-08-20T03:32:22.402Z,16.70
2018-08-20T03:34:51.095Z,17.47
2018-08-20T03:37:19.855Z,16.10
2018-08-20T03:39:48.565Z,15.07
2018-08-20T03:42:17.267Z,13.40
2018-08-20T03:44:45.964Z,12.33
2018-08-20T03:47:14.682Z,14.57
2018-08-20T03:49:43.395Z,13.57
2018-08-20T03:52:12.111Z,14.03
2018-08-20T03:54:40.821Z,13.70
2018-08-20T03:57:09.576Z,15.80
2018-08-20T03:59:38.483Z,15.07
2018-08-20T04:02:08.068Z,17.73
2018-08-20T04:04:36.858Z,21.60
2018-08-20T04:07:06.943Z,13.90
2018-08-20T04:09:36.154Z,13.97
2018-08-20T04:12:05.411Z,13.43
2018-08-20T04:14:34.183Z,13.80
2018-08-20T04:17:02.975Z,18.30
2018-08-20T04:19:31.719Z,14.27
2018-08-20T04:22:00.502Z,13.20
2018-08-20T04:24:29.238Z,22.27
2018-08-20T04:26:57.991Z,12.93
2018-08-20T04:29:26.759Z,14.17
2018-08-20T04:31:55.482Z,16.43
2018-08-20T04:34:24.181Z,15.43
2018-08-20T04:36:52.882Z,13.50
2018-08-20T04:39:21.551Z,14.03
2018-08-20T04:41:50.328Z,15.37
2018-08-20T04:44:21.012Z,16.80
2018-08-20T04:46:49.768Z,17.33
2018-08-20T04:49:18.463Z,14.83
2018-08-20T04:51:47.205Z,12.47
2018-08-20T04:54:46.860Z,15.00
2018-08-20T04:57:15.923Z,14.17
2018-08-20T04:59:44.717Z,18.50
2018-08-20T05:02:13.487Z,15.17
2018-08-20T05:04:42.191Z,14.23
2018-08-20T05:07:10.929Z,13.50
2018-08-20T05:09:39.624Z,17.00
2018-08-20T05:12:08.363Z,15.27
2018-08-20T05:14:37.087Z,18.03
2018-08-20T05:17:05.987Z,13.17
2018-08-20T05:19:34.674Z,21.23
2018-08-20T05:22:03.416Z,15.67
2018-08-20T05:24:32.099Z,20.63
2018-08-20T05:27:00.872Z,16.47
2018-08-20T05:29:29.683Z,16.27
2018-08-20T05:31:58.400Z,14.50
2018-08-20T05:34:27.148Z,17.60
2018-08-20T05:36:57.471Z,14.27
2018-08-20T05:39:26.296Z,17.13
2018-08-20T05:41:55.122Z,13.37
2018-08-20T05:44:23.873Z,14.20
2018-08-20T05:46:52.658Z,17.03
2018-08-20T05:49:21.372Z,15.37
2018-08-20T05:51:50.196Z,15.73
2018-08-20T05:54:19.080Z,13.77
2018-08-20T05:56:47.818Z,13.97
2018-08-20T05:59:16.700Z,14.20
2018-08-20T06:01:45.408Z,15.67
2018-08-20T06:04:14.216Z,18.80
2018-08-20T06:06:43.039Z,14.33
2018-08-20T06:09:12.110Z,16.27
2018-08-20T06:11:40.943Z,16.33
2018-08-20T06:14:09.761Z,21.77
2018-08-20T06:16:38.542Z,15.17
2018-08-20T06:19:07.365Z,15.67
2018-08-20T06:21:36.211Z,18.00
2018-08-20T06:24:05.031Z,20.37
2018-08-20T06:26:33.770Z,22.23
2018-08-20T06:29:02.595Z,17.87
2018-08-20T06:31:31.423Z,16.63
2018-08-20T06:34:00.284Z,22.03
2018-08-20T06:36:29.026Z,19.43
2018-08-20T06:38:57.743Z,23.77
2018-08-20T06:41:26.600Z,19.53
2018-08-20T06:43:55.604Z,21.37
2018-08-20T06:46:24.399Z,21.90
2018-08-20T06:48:53.227Z,23.43
2018-08-20T06:51:21.962Z,20.93
2018-08-20T06:53:50.687Z,21.10
2018-08-20T06:56:19.732Z,23.63
2018-08-20T06:58:48.544Z,18.67
2018-08-20T07:01:17.413Z,20.57
2018-08-20T07:03:46.266Z,21.33
2018-08-20T07:06:14.986Z,25.20
2018-08-20T07:08:43.711Z,23.17
2018-08-20T07:11:12.595Z,19.80
2018-08-20T07:13:41.448Z,19.60
2018-08-20T07:16:10.287Z,21.00
2018-08-20T07:18:39.047Z,22.77
2018-08-20T07:21:07.868Z,19.13
2018-08-20T07:23:36.755Z,20.60
2018-08-20T07:26:05.469Z,17.80
2018-08-20T07:28:34.244Z,17.80
2018-08-20T07:31:03.105Z,18.33
2018-08-20T07:33:31.891Z,21.87
2018-08-20T07:36:00.639Z,17.70
2018-08-20T07:38:29.428Z,15.57
2018-08-20T07:40:58.191Z,15.17
2018-08-20T07:43:26.954Z,8.97
2018-08-20T07:45:55.680Z,13.80
2018-08-20T07:48:24.553Z,10.63
2018-08-20T07:50:53.318Z,13.73
2018-08-20T07:53:22.024Z,12.73
2018-08-20T07:55:50.764Z,12.03
2018-08-20T07:58:19.574Z,10.70
2018-08-20T08:00:48.322Z,16.93
2018-08-20T08:03:21.271Z,17.43
2018-08-20T08:05:50.045Z,15.13
2018-08-20T08:08:18.815Z,14.63
2018-08-20T08:10:47.608Z,14.23
2018-08-20T08:13:16.411Z,13.40
2018-08-20T08:15:45.115Z,10.57
2018-08-20T08:18:13.882Z,11.87
2018-08-20T08:20:42.719Z,10.27
2018-08-20T08:23:11.458Z,15.07
2018-08-20T08:25:40.307Z,13.90
2018-08-20T08:28:09.120Z,13.27
2018-08-20T08:30:38.030Z,13.33
2018-08-20T08:33:06.898Z,14.13
2018-08-20T08:35:35.663Z,13.03
2018-08-20T08:38:04.508Z,12.67
2018-08-20T08:40:33.262Z,8.97
2018-08-20T08:43:02.052Z,8.53
2018-08-20T08:45:30.841Z,8.57
2018-08-20T08:47:59.603Z,9.83
2018-08-20T08:50:28.330Z,9.30
2018-08-20T08:52:57.115Z,10.13
2018-08-20T08:55:25.836Z,9.67
2018-08-20T08:57:54.546Z,10.65
2018-08-20T09:00:23.332Z,10.20
2018-08-20T09:02:52.131Z,11.28
2018-08-20T09:05:20.906Z,12.07
2018-08-20T09:07:49.777Z,8.10
2018-08-20T09:10:18.576Z,9.45
2018-08-20T09:12:47.322Z,14.18
2018-08-20T09:15:17.317Z,9.17
2018-08-20T09:17:46.302Z,7.25
2018-08-20T09:20:16.412Z,8.70
2018-08-20T09:22:45.346Z,7.10
2018-08-20T09:25:14.911Z,9.60
2018-08-20T09:27:44.735Z,7.58
2018-08-20T09:30:17.428Z,10.30
2018-08-20T09:32:47.281Z,8.63
2018-08-20T09:35:16.069Z,7.35
2018-08-20T09:37:44.820Z,8.85
2018-08-20T09:40:14.024Z,10.88
2018-08-20T09:42:43.293Z,10.78
2018-08-20T09:45:12.062Z,10.78
2018-08-20T09:47:41.712Z,8.23
2018-08-20T09:50:12.353Z,10.45
2018-08-20T09:52:41.100Z,8.48
2018-08-20T09:55:10.423Z,9.68
2018-08-20T09:57:39.316Z,10.10
2018-08-20T10:00:12.067Z,15.48
2018-08-20T10:02:40.904Z,11.43
2018-08-20T10:05:09.841Z,9.70
2018-08-20T10:07:38.608Z,9.75
2018-08-20T10:10:07.566Z,10.30
2018-08-20T10:12:36.335Z,9.65
2018-08-20T10:15:05.266Z,7.87
2018-08-20T10:17:34.118Z,7.85
2018-08-20T10:20:02.870Z,9.48
2018-08-20T10:22:31.606Z,11.10
2018-08-20T10:25:00.422Z,14.15
2018-08-20T10:27:29.218Z,7.42
2018-08-20T10:29:57.972Z,12.67
2018-08-20T10:32:26.810Z,8.27
2018-08-20T10:34:55.642Z,9.07
2018-08-20T10:37:24.458Z,11.53
2018-08-20T10:39:53.263Z,9.50
2018-08-20T10:42:22.044Z,14.70
2018-08-20T10:45:57.792Z,9.23
2018-08-20T10:48:26.559Z,12.28
2018-08-20T10:50:55.303Z,6.67
2018-08-20T10:53:24.322Z,8.43
2018-08-20T10:55:53.070Z,11.73
2018-08-20T10:58:21.867Z,9.30
2018-08-20T11:00:50.591Z,7.03
2018-08-20T11:03:19.376Z,12.40
2018-08-20T11:05:48.194Z,10.32
2018-08-20T11:08:17.106Z,20.72
2018-08-20T11:10:45.889Z,9.75
2018-08-20T11:13:14.634Z,7.70
2018-08-20T11:15:43.419Z,12.13
2018-08-20T11:18:12.127Z,8.50
2018-08-20T11:20:40.896Z,10.23
2018-08-20T11:23:09.694Z,9.27
2018-08-20T11:25:38.818Z,7.20
2018-08-20T11:28:07.715Z,24.57
2018-08-20T11:30:36.504Z,17.27
2018-08-20T11:33:05.315Z,24.25
2018-08-20T11:35:34.045Z,14.25
2018-08-20T11:38:02.904Z,13.08
2018-08-20T11:40:31.620Z,11.88
2018-08-20T11:43:00.351Z,14.00
2018-08-20T11:45:29.099Z,13.37
2018-08-20T11:47:57.914Z,13.90
2018-08-20T11:50:26.676Z,16.00
2018-08-20T11:52:56.743Z,15.57
2018-08-20T11:55:25.504Z,13.73
2018-08-20T11:57:54.328Z,8.87
2018-08-20T12:00:23.139Z,8.60
2018-08-20T12:02:52.319Z,7.90
2018-08-20T12:05:21.080Z,7.90
2018-08-20T12:07:50.235Z,9.67
2018-08-20T12:10:19.954Z,8.63
2018-08-20T12:12:48.688Z,8.97
2018-08-20T12:15:17.398Z,8.43
2018-08-20T12:17:46.099Z,8.47
2018-08-20T12:20:14.785Z,14.80
2018-08-20T12:22:43.514Z,9.67
2018-08-20T12:25:14.473Z,10.77
2018-08-20T12:27:43.502Z,9.20
2018-08-20T12:30:15.820Z,11.27
2018-08-20T12:32:44.499Z,15.73
2018-08-20T12:35:13.211Z,10.03
2018-08-20T12:37:42.219Z,13.60
2018-08-20T12:40:11.012Z,9.47
2018-08-20T12:42:39.754Z,10.53
2018-08-20T12:45:08.944Z,12.20
2018-08-20T12:47:37.675Z,9.70
2018-08-20T12:50:06.726Z,14.30
2018-08-20T12:52:35.574Z,9.30
2018-08-20T12:55:04.371Z,8.83
2018-08-20T12:57:33.279Z,7.67
2018-08-20T13:00:02.059Z,10.40
2018-08-20T13:02:30.856Z,13.43
2018-08-20T13:04:59.567Z,9.33
2018-08-20T13:07:28.325Z,10.93
2018-08-20T13:09:57.100Z,10.77
2018-08-20T13:12:25.954Z,10.40
2018-08-20T13:14:54.686Z,9.50
2018-08-20T13:17:23.442Z,14.40
2018-08-20T13:19:52.224Z,8.80
2018-08-20T13:22:21.859Z,18.87
2018-08-20T13:24:50.657Z,11.63
2018-08-20T13:27:19.394Z,13.17
2018-08-20T13:29:48.135Z,11.47
2018-08-20T13:32:16.859Z,12.63
2018-08-20T13:34:45.623Z,12.20
2018-08-20T13:37:14.398Z,11.23
2018-08-20T13:39:43.274Z,17.13
2018-08-20T13:42:12.008Z,13.10
2018-08-20T13:44:40.778Z,14.93
2018-08-20T13:47:09.594Z,12.90
2018-08-20T13:49:38.469Z,10.13
2018-08-20T13:52:07.299Z,10.67
2018-08-20T13:54:36.096Z,9.83
2018-08-20T13:57:04.904Z,12.03
2018-08-20T13:59:33.721Z,14.53
2018-08-20T14:02:02.470Z,14.60
2018-08-20T14:04:31.211Z,13.47
2018-08-20T14:06:59.995Z,11.63
2018-08-20T14:09:28.815Z,11.43
2018-08-20T14:11:57.566Z,13.70
2018-08-20T14:14:26.351Z,13.40
2018-08-20T14:16:55.142Z,9.80
2018-08-20T14:19:23.822Z,11.47
2018-08-20T14:21:52.611Z,11.63
2018-08-20T14:24:21.369Z,13.70
2018-08-20T14:26:50.174Z,11.03
2018-08-20T14:29:18.877Z,10.73
2018-08-20T14:31:48.580Z,13.90
2018-08-20T14:34:17.321Z,10.00
2018-08-20T14:36:46.088Z,14.03
2018-08-20T14:39:14.949Z,12.58
2018-08-20T14:41:43.613Z,15.07
2018-08-20T14:44:12.387Z,10.80
2018-08-20T14:46:41.105Z,10.72
2018-08-20T14:49:09.856Z,13.30
2018-08-20T14:51:38.609Z,10.33
2018-08-20T14:54:07.394Z,14.53
2018-08-20T14:56:36.214Z,13.97
2018-08-20T14:59:05.011Z,14.67
2018-08-20T15:01:33.782Z,10.87
2018-08-20T15:04:02.537Z,10.60
2018-08-20T15:06:31.326Z,20.27
2018-08-20T15:09:00.090Z,12.13
2018-08-20T15:11:28.856Z,15.83
2018-08-20T15:13:57.583Z,10.97
2018-08-20T15:16:26.276Z,11.95
2018-08-20T15:18:55.150Z,12.98
2018-08-20T15:21:23.946Z,11.00
2018-08-20T15:23:52.645Z,13.78
2018-08-20T15:26:21.448Z,10.90
2018-08-20T15:28:50.177Z,9.65
2018-08-20T15:31:18.910Z,11.10
2018-08-20T15:33:47.650Z,12.88
2018-08-20T15:36:16.403Z,10.38
2018-08-20T15:38:45.139Z,13.93
2018-08-20T15:41:13.866Z,11.97
2018-08-20T15:43:42.616Z,12.98
2018-08-20T15:46:11.444Z,10.85
2018-08-20T15:48:40.225Z,9.50
2018-08-20T15:51:08.952Z,9.18
2018-08-20T15:53:37.703Z,8.30
2018-08-20T15:56:06.608Z,9.65
2018-08-20T15:58:35.369Z,8.88
2018-08-20T16:01:04.204Z,8.28
2018-08-20T16:04:03.783Z,11.10
2018-08-20T16:06:32.469Z,11.25
2018-08-20T16:09:01.186Z,12.80
2018-08-20T16:11:29.883Z,11.97
2018-08-20T16:13:58.589Z,9.70
2018-08-20T16:16:27.384Z,10.58
2018-08-20T16:18:56.121Z,12.63
2018-08-20T16:21:24.922Z,13.32
2018-08-20T16:23:53.620Z,11.33
2018-08-20T16:26:22.347Z,11.70
2018-08-20T16:28:51.061Z,10.43
2018-08-20T16:31:19.770Z,11.68
2018-08-20T16:33:48.503Z,13.67
2018-08-20T16:36:17.271Z,14.53
2018-08-20T16:38:46.015Z,11.43
2018-08-20T16:41:14.722Z,18.57
2018-08-20T16:43:43.484Z,12.00
2018-08-20T16:46:12.212Z,10.93
2018-08-20T16:48:40.911Z,12.33
2018-08-20T16:51:09.690Z,11.18
2018-08-20T16:53:38.442Z,11.87
2018-08-20T16:56:07.455Z,10.75
2018-08-20T16:58:36.131Z,13.30
2018-08-20T17:01:04.954Z,11.23
2018-08-20T17:03:33.729Z,10.10
2018-08-20T17:06:02.420Z,13.97
2018-08-20T17:08:32.676Z,10.37
2018-08-20T17:11:01.433Z,12.37
2018-08-20T17:13:30.868Z,14.53
2018-08-20T17:15:59.683Z,14.40
2018-08-20T17:18:28.609Z,11.47
2018-08-20T17:20:57.432Z,12.50
2018-08-20T17:23:26.252Z,11.90
2018-08-20T17:25:56.505Z,13.73
2018-08-20T17:28:26.624Z,12.63
2018-08-20T17:30:57.562Z,12.63
2018-08-20T17:33:29.671Z,14.00
2018-08-20T17:35:58.380Z,14.27
2018-08-20T17:38:27.152Z,17.97
2018-08-20T17:40:56.011Z,14.13
2018-08-20T17:43:24.798Z,14.40
2018-08-20T17:45:55.374Z,20.73
2018-08-20T17:48:31.314Z,14.13
2018-08-20T17:51:00.326Z,15.73
2018-08-20T17:53:40.255Z,13.97
2018-08-20T17:56:09.005Z,17.40
2018-08-20T17:58:37.701Z,13.30
2018-08-20T18:01:06.565Z,11.73
2018-08-20T18:03:36.415Z,28.43
2018-08-20T18:06:09.582Z,21.17
2018-08-20T18:08:38.433Z,15.00
2018-08-20T18:11:08.227Z,20.43
2018-08-20T18:13:44.886Z,20.40
2018-08-20T18:16:14.926Z,16.07
2018-08-20T18:18:45.578Z,19.77
2018-08-20T18:21:14.348Z,17.20
2018-08-20T18:23:43.189Z,18.93
2018-08-20T18:26:12.112Z,17.87
2018-08-20T18:28:46.546Z,21.73
2018-08-20T18:31:19.262Z,18.20
2018-08-20T18:33:48.283Z,18.50
2018-08-20T18:36:20.110Z,15.97
2018-08-20T18:38:52.211Z,18.93
2018-08-20T18:41:23.151Z,15.20
2018-08-20T18:43:51.942Z,15.83
2018-08-20T18:46:20.728Z,13.73
2018-08-20T18:48:49.426Z,14.00
2018-08-20T18:51:18.166Z,17.83
2018-08-20T18:53:46.952Z,17.53
2018-08-20T18:56:18.112Z,14.50
2018-08-20T18:58:46.932Z,12.00
2018-08-20T19:01:15.658Z,12.20
2018-08-20T19:03:48.708Z,11.97
2018-08-20T19:06:18.160Z,12.83
2018-08-20T19:08:46.974Z,11.83
2018-08-20T19:11:15.738Z,15.33
2018-08-20T19:13:44.556Z,12.53
2018-08-20T19:16:27.758Z,16.83
2018-08-20T19:18:56.631Z,15.20
2018-08-20T19:21:29.628Z,13.93
2018-08-20T19:24:00.482Z,19.23
2018-08-20T19:26:30.447Z,16.27
2018-08-20T19:29:00.933Z,16.87
2018-08-20T19:31:29.672Z,15.43
2018-08-20T19:33:58.504Z,17.50
2018-08-20T19:36:27.280Z,15.43
2018-08-20T19:38:56.030Z,14.80
2018-08-20T19:41:24.843Z,14.93
2018-08-20T19:43:53.604Z,15.00
2018-08-20T19:46:30.129Z,15.70
2018-08-20T19:49:04.713Z,19.10
2018-08-20T19:51:35.806Z,18.53
2018-08-20T19:54:04.667Z,19.83
2018-08-20T19:56:33.442Z,12.40
2018-08-20T19:59:02.210Z,14.10
2018-08-20T20:01:31.001Z,13.67
2018-08-20T20:03:59.832Z,15.23
2018-08-20T20:06:28.599Z,15.00
2018-08-20T20:08:57.920Z,13.53
2018-08-20T20:11:30.671Z,15.43
2018-08-20T20:14:01.355Z,13.47
2018-08-20T20:16:40.218Z,18.00
2018-08-20T20:19:10.013Z,12.93
2018-08-20T20:21:39.049Z,12.40
2018-08-20T20:24:09.104Z,12.13
2018-08-20T20:26:37.892Z,12.90
2018-08-20T20:29:07.886Z,12.40
2018-08-20T20:31:37.184Z,17.00
2018-08-20T20:34:06.033Z,13.50
2018-08-20T20:36:34.721Z,14.03
2018-08-20T20:39:03.621Z,13.17
2018-08-20T20:41:32.459Z,15.50
2018-08-20T20:44:01.237Z,15.60
2018-08-20T20:46:30.104Z,13.17
2018-08-20T20:48:58.881Z,12.03
2018-08-20T20:51:27.668Z,11.83
2018-08-20T20:53:56.477Z,12.07
2018-08-20T20:56:25.235Z,11.83
2018-08-20T20:58:54.040Z,12.07
2018-08-20T21:01:22.793Z,13.37
2018-08-20T21:03:51.676Z,12.57
2018-08-20T21:08:54.282Z,12.70
2018-08-20T21:11:23.386Z,20.30
2018-08-20T21:13:52.137Z,21.03
2018-08-20T21:16:25.366Z,13.43
2018-08-20T21:18:55.282Z,19.93
2018-08-20T21:21:24.469Z,12.13
2018-08-20T21:23:53.350Z,12.93
2018-08-20T21:26:22.124Z,14.40
2018-08-20T21:28:52.808Z,12.00
2018-08-20T21:31:22.830Z,15.13
2018-08-20T21:34:00.734Z,13.60
2018-08-20T21:36:29.572Z,13.63
2018-08-20T21:38:58.931Z,19.80
2018-08-20T21:41:28.955Z,21.23
2018-08-20T21:43:57.828Z,15.90
2018-08-20T21:46:26.590Z,19.70
2018-08-20T21:48:55.426Z,22.00
2018-08-20T21:51:27.574Z,19.27
2018-08-20T21:53:56.437Z,22.93
2018-08-20T21:56:25.648Z,22.20
2018-08-20T21:58:55.473Z,24.40
2018-08-20T22:01:24.342Z,21.43
2018-08-20T22:03:53.021Z,17.63
2018-08-20T22:06:21.768Z,24.80
2018-08-20T22:08:50.547Z,21.23
2018-08-20T22:11:19.312Z,21.43
2018-08-20T22:13:48.025Z,19.13
2018-08-20T22:16:22.168Z,21.67
2018-08-20T22:18:56.603Z,24.43
2018-08-20T22:21:25.695Z,25.37
2018-08-20T22:23:59.839Z,19.47
2018-08-20T22:26:28.696Z,19.53
2018-08-20T22:28:57.712Z,23.73
2018-08-20T22:31:26.534Z,19.23
2018-08-20T22:34:00.417Z,22.17
2018-08-20T22:36:30.612Z,22.87
2018-08-20T22:39:00.652Z,21.73
2018-08-20T22:41:30.479Z,22.27
2018-08-20T22:43:59.327Z,21.43
2018-08-20T22:46:28.032Z,22.10
2018-08-20T22:48:59.299Z,24.77
2018-08-20T22:51:29.106Z,25.90
2018-08-20T22:54:00.414Z,21.33
2018-08-20T22:56:30.907Z,22.13
2018-08-20T22:59:01.175Z,27.37
2018-08-20T23:01:30.100Z,21.67
2018-08-20T23:03:58.930Z,21.63
2018-08-20T23:06:27.686Z,21.07
2018-08-20T23:08:56.403Z,22.23
2018-08-20T23:11:38.161Z,25.97
2018-08-20T23:14:08.622Z,23.60
2018-08-20T23:16:37.665Z,21.47
2018-08-20T23:19:06.564Z,22.83
2018-08-20T23:21:39.428Z,20.40
2018-08-20T23:24:08.564Z,21.50
2018-08-20T23:26:37.368Z,22.07
2018-08-20T23:29:06.147Z,20.87
2018-08-20T23:31:34.875Z,21.70
2018-08-20T23:34:03.688Z,21.10
2018-08-20T23:36:32.477Z,20.77
2018-08-20T23:39:01.215Z,19.83
2018-08-20T23:41:29.923Z,19.93
2018-08-20T23:43:59.695Z,20.03
2018-08-20T23:46:39.608Z,19.93
2018-08-20T23:49:08.366Z,20.70
2018-08-20T23:51:37.191Z,19.40
2018-08-20T23:54:06.089Z,19.37
2018-08-20T23:56:34.860Z,19.43
2018-08-20T23:59:03.610Z,19.50
